UAE4PV OMDB-LIMC
Flight info
| Callsign | UAE4PV |
|---|---|
| Flight time | N/A |
| Altitude | 36000 |
| Route | KUTLI L519 ATUDO M318 GOLGU M550 RIBOT DCT MIGMA DCT MEVDO DCT ITRUX Y511 PMA Z712 WEJ L677 KAPIT/N0491F380 L677 CVO L617 TANSA UL613 KOR DCT DIMIS DCT VAKSU DCT SPL DCT ZDA DCT PUL DCT LABIN DCT BASOG DCT VIC/N0373F190 L615 IBUGO/N0368F180 L615 OSKOR/N0373F190 L615 PEXUG |
| Aircraft | A388/J-SADE2E3FGHIJ3J4J5M1RWXY/LB1D1 |
Departure
| Time | N/A |
|---|---|
| Airport | Dubai International Airport (OMDB) |
Arrival
| Time | 2026-05-07 12:40 |
|---|---|
| Airport | Milan Malpensa International Airport (LIMC) |
| Time | Latitude | Longitude | Altitude | Speed | Heading |
|---|---|---|---|---|---|
| 2026-05-07 11:57 | 44.89193 | 13.88155 | 40009 ft | 454 kts | 284° |
| 2026-05-07 11:57 | 44.90083 | 13.83804 | 40018 ft | 451 kts | 279° |
| 2026-05-07 11:58 | 44.91143 | 13.75027 | 40009 ft | 449 kts | 276° |
| 2026-05-07 11:58 | 44.92157 | 13.66470 | 40003 ft | 449 kts | 276° |
| 2026-05-07 11:59 | 44.93167 | 13.57751 | 40012 ft | 450 kts | 276° |
| 2026-05-07 11:59 | 44.94122 | 13.49337 | 40005 ft | 450 kts | 276° |
| 2026-05-07 12:00 | 44.95103 | 13.40616 | 40017 ft | 451 kts | 276° |
| 2026-05-07 12:00 | 44.96083 | 13.31848 | 40017 ft | 451 kts | 276° |
| 2026-05-07 12:01 | 44.97046 | 13.23164 | 40009 ft | 451 kts | 276° |
| 2026-05-07 12:01 | 44.98011 | 13.14406 | 40010 ft | 451 kts | 276° |
| 2026-05-07 12:02 | 44.99441 | 13.05741 | 40001 ft | 455 kts | 284° |
| 2026-05-07 12:02 | 45.01557 | 12.97216 | 40002 ft | 456 kts | 285° |
| 2026-05-07 12:03 | 45.03627 | 12.88798 | 39999 ft | 457 kts | 285° |
| 2026-05-07 12:03 | 45.05367 | 12.81703 | 39999 ft | 457 kts | 285° |
| 2026-05-07 12:04 | 45.07491 | 12.73029 | 40000 ft | 457 kts | 285° |
| 2026-05-07 12:04 | 45.09589 | 12.64438 | 39999 ft | 458 kts | 285° |
| 2026-05-07 12:05 | 45.11338 | 12.57394 | 39995 ft | 459 kts | 288° |
| 2026-05-07 12:05 | 45.14809 | 12.47848 | 39997 ft | 466 kts | 298° |
| 2026-05-07 12:06 | 45.18783 | 12.40496 | 39991 ft | 472 kts | 307° |
| 2026-05-07 12:06 | 45.23154 | 12.33538 | 39983 ft | 472 kts | 307° |
| 2026-05-07 12:07 | 45.27467 | 12.26591 | 39978 ft | 473 kts | 307° |
| 2026-05-07 12:07 | 45.31767 | 12.19661 | 39976 ft | 473 kts | 307° |
| 2026-05-07 12:08 | 45.36084 | 12.12694 | 39991 ft | 473 kts | 307° |
| 2026-05-07 12:08 | 45.40387 | 12.05732 | 39993 ft | 474 kts | 307° |
| 2026-05-07 12:09 | 45.44675 | 11.98776 | 39996 ft | 474 kts | 307° |
| 2026-05-07 12:09 | 45.49036 | 11.91684 | 39994 ft | 474 kts | 307° |
| 2026-05-07 12:10 | 45.53477 | 11.84443 | 39995 ft | 474 kts | 306° |
| 2026-05-07 12:10 | 45.57856 | 11.77285 | 39995 ft | 474 kts | 306° |
| 2026-05-07 12:11 | 45.61486 | 11.69643 | 39990 ft | 465 kts | 291° |
| 2026-05-07 12:11 | 45.63500 | 11.60969 | 39705 ft | 452 kts | 277° |
| 2026-05-07 12:11 | 45.63867 | 11.56539 | 39490 ft | 447 kts | 270° |
| 2026-05-07 12:12 | 45.63912 | 11.52108 | 39260 ft | 446 kts | 268° |
| 2026-05-07 12:12 | 45.63946 | 11.49124 | 39114 ft | 447 kts | 269° |
| 2026-05-07 12:12 | 45.64032 | 11.43221 | 38824 ft | 447 kts | 269° |
| 2026-05-07 12:12 | 45.64093 | 11.38817 | 38594 ft | 447 kts | 269° |
| 2026-05-07 12:13 | 45.64129 | 11.35947 | 38416 ft | 447 kts | 268° |
| 2026-05-07 12:13 | 45.64181 | 11.31346 | 38071 ft | 446 kts | 269° |
| 2026-05-07 12:13 | 45.64227 | 11.26943 | 37414 ft | 447 kts | 269° |
| 2026-05-07 12:13 | 45.64272 | 11.22491 | 36518 ft | 449 kts | 268° |
| 2026-05-07 12:14 | 45.64314 | 11.17969 | 35610 ft | 453 kts | 268° |
| 2026-05-07 12:14 | 45.64355 | 11.13522 | 35004 ft | 448 kts | 269° |
| 2026-05-07 12:14 | 45.64393 | 11.09129 | 34303 ft | 446 kts | 269° |
| 2026-05-07 12:14 | 45.64488 | 11.04655 | 33683 ft | 440 kts | 269° |
| 2026-05-07 12:15 | 45.64522 | 11.00273 | 32558 ft | 444 kts | 268° |
| 2026-05-07 12:15 | 45.64530 | 10.95964 | 31759 ft | 442 kts | 268° |
| 2026-05-07 12:15 | 45.64552 | 10.91426 | 31074 ft | 436 kts | 269° |
| 2026-05-07 12:15 | 45.64586 | 10.87203 | 30395 ft | 431 kts | 269° |
| 2026-05-07 12:16 | 45.64625 | 10.82856 | 29646 ft | 426 kts | 269° |
| 2026-05-07 12:16 | 45.64670 | 10.78713 | 28990 ft | 419 kts | 269° |
| 2026-05-07 12:16 | 45.64715 | 10.74466 | 27724 ft | 425 kts | 270° |
| 2026-05-07 12:16 | 45.64506 | 10.70111 | 26748 ft | 425 kts | 261° |
| 2026-05-07 12:17 | 45.63929 | 10.66022 | 25968 ft | 421 kts | 258° |
| 2026-05-07 12:17 | 45.63277 | 10.61913 | 25185 ft | 418 kts | 258° |
| 2026-05-07 12:17 | 45.62655 | 10.57890 | 24437 ft | 415 kts | 258° |
| 2026-05-07 12:17 | 45.62063 | 10.53859 | 23680 ft | 412 kts | 259° |
| 2026-05-07 12:18 | 45.61491 | 10.49811 | 22812 ft | 410 kts | 259° |
| 2026-05-07 12:18 | 45.60949 | 10.45911 | 22048 ft | 405 kts | 259° |
| 2026-05-07 12:18 | 45.60406 | 10.41984 | 21313 ft | 402 kts | 259° |
| 2026-05-07 12:18 | 45.59867 | 10.38097 | 20921 ft | 399 kts | 259° |
| 2026-05-07 12:19 | 45.59325 | 10.34192 | 20237 ft | 399 kts | 259° |
| 2026-05-07 12:19 | 45.58787 | 10.30336 | 19566 ft | 397 kts | 259° |
| 2026-05-07 12:19 | 45.58248 | 10.26481 | 18827 ft | 394 kts | 259° |
| 2026-05-07 12:19 | 45.57713 | 10.22673 | 18086 ft | 392 kts | 259° |
| 2026-05-07 12:20 | 45.57179 | 10.18877 | 17304 ft | 389 kts | 259° |
| 2026-05-07 12:20 | 45.56665 | 10.15101 | 16549 ft | 385 kts | 260° |
| 2026-05-07 12:20 | 45.56140 | 10.11366 | 15780 ft | 383 kts | 258° |
| 2026-05-07 12:20 | 45.55586 | 10.07685 | 15046 ft | 380 kts | 258° |
| 2026-05-07 12:21 | 45.55040 | 10.04026 | 14748 ft | 367 kts | 258° |
| 2026-05-07 12:21 | 45.54528 | 10.00540 | 14593 ft | 351 kts | 258° |
| 2026-05-07 12:21 | 45.54051 | 9.97233 | 14458 ft | 337 kts | 259° |
| 2026-05-07 12:21 | 45.53595 | 9.94053 | 14353 ft | 324 kts | 259° |
| 2026-05-07 12:22 | 45.53113 | 9.90974 | 14234 ft | 312 kts | 252° |
| 2026-05-07 12:22 | 45.52307 | 9.88280 | 14146 ft | 301 kts | 245° |
| 2026-05-07 12:22 | 45.51500 | 9.85936 | 13965 ft | 295 kts | 245° |
| 2026-05-07 12:22 | 45.50595 | 9.83326 | 13614 ft | 293 kts | 245° |
| 2026-05-07 12:23 | 45.49828 | 9.81078 | 13309 ft | 292 kts | 245° |
| 2026-05-07 12:23 | 45.48961 | 9.78475 | 12937 ft | 291 kts | 246° |
| 2026-05-07 12:23 | 45.48095 | 9.75830 | 12575 ft | 289 kts | 246° |
| 2026-05-07 12:23 | 45.47246 | 9.73224 | 12256 ft | 288 kts | 246° |
| 2026-05-07 12:24 | 45.46429 | 9.70716 | 11904 ft | 286 kts | 245° |
| 2026-05-07 12:24 | 45.45582 | 9.68122 | 11541 ft | 285 kts | 245° |
| 2026-05-07 12:24 | 45.44729 | 9.65512 | 11284 ft | 284 kts | 245° |
| 2026-05-07 12:24 | 45.43897 | 9.62969 | 11032 ft | 283 kts | 245° |
| 2026-05-07 12:25 | 45.43064 | 9.60427 | 10774 ft | 282 kts | 245° |
| 2026-05-07 12:25 | 45.42240 | 9.57914 | 10536 ft | 280 kts | 245° |
| 2026-05-07 12:25 | 45.41682 | 9.56214 | 10368 ft | 281 kts | 245° |
| 2026-05-07 12:25 | 45.40586 | 9.52880 | 10045 ft | 279 kts | 245° |
| 2026-05-07 12:26 | 45.39806 | 9.50510 | 9915 ft | 271 kts | 245° |
| 2026-05-07 12:26 | 45.39009 | 9.48090 | 9729 ft | 260 kts | 245° |
| 2026-05-07 12:26 | 45.38484 | 9.46496 | 9616 ft | 256 kts | 245° |
| 2026-05-07 12:26 | 45.37713 | 9.44161 | 9444 ft | 254 kts | 245° |
| 2026-05-07 12:27 | 45.36960 | 9.41881 | 9305 ft | 255 kts | 245° |
| 2026-05-07 12:27 | 45.36203 | 9.39587 | 9170 ft | 255 kts | 245° |
| 2026-05-07 12:27 | 45.35450 | 9.37306 | 9056 ft | 255 kts | 245° |
| 2026-05-07 12:27 | 45.34706 | 9.35050 | 8909 ft | 254 kts | 245° |
| 2026-05-07 12:28 | 45.33955 | 9.32779 | 8788 ft | 254 kts | 245° |
| 2026-05-07 12:28 | 45.33194 | 9.30489 | 8657 ft | 254 kts | 245° |
| 2026-05-07 12:28 | 45.32441 | 9.28225 | 8522 ft | 253 kts | 245° |
| 2026-05-07 12:28 | 45.31699 | 9.25990 | 8409 ft | 253 kts | 245° |
| 2026-05-07 12:29 | 45.30897 | 9.23577 | 8254 ft | 252 kts | 245° |
| 2026-05-07 12:29 | 45.30150 | 9.21331 | 8138 ft | 253 kts | 245° |
| 2026-05-07 12:29 | 45.29396 | 9.19069 | 8024 ft | 253 kts | 245° |
| 2026-05-07 12:29 | 45.28646 | 9.16823 | 7872 ft | 252 kts | 244° |
| 2026-05-07 12:30 | 45.27895 | 9.14571 | 7765 ft | 251 kts | 244° |
| 2026-05-07 12:30 | 45.27148 | 9.12337 | 7544 ft | 252 kts | 245° |
| 2026-05-07 12:30 | 45.26493 | 9.10060 | 7292 ft | 249 kts | 258° |
| 2026-05-07 12:30 | 45.26537 | 9.07624 | 6845 ft | 250 kts | 287° |
| 2026-05-07 12:31 | 45.27291 | 9.05382 | 6383 ft | 250 kts | 298° |
| 2026-05-07 12:31 | 45.27993 | 9.03603 | 6131 ft | 246 kts | 298° |
| 2026-05-07 12:31 | 45.28852 | 9.01429 | 6054 ft | 237 kts | 298° |
| 2026-05-07 12:31 | 45.29632 | 8.99419 | 5983 ft | 228 kts | 297° |
| 2026-05-07 12:32 | 45.30370 | 8.97469 | 5937 ft | 221 kts | 297° |
| 2026-05-07 12:32 | 45.31080 | 8.95566 | 5815 ft | 216 kts | 297° |
| 2026-05-07 12:32 | 45.31783 | 8.93701 | 5609 ft | 215 kts | 297° |
| 2026-05-07 12:32 | 45.32487 | 8.91835 | 5366 ft | 215 kts | 297° |
| 2026-05-07 12:33 | 45.33895 | 8.88107 | 4933 ft | 214 kts | 297° |
| 2026-05-07 12:33 | 45.34591 | 8.86255 | 4757 ft | 213 kts | 297° |
| 2026-05-07 12:33 | 45.35287 | 8.84412 | 4580 ft | 212 kts | 297° |
| 2026-05-07 12:34 | 45.35991 | 8.82555 | 4433 ft | 211 kts | 300° |
| 2026-05-07 12:34 | 45.36967 | 8.81027 | 4205 ft | 213 kts | 327° |
| 2026-05-07 12:34 | 45.38331 | 8.80231 | 4027 ft | 214 kts | 344° |
| 2026-05-07 12:34 | 45.39774 | 8.79782 | 3922 ft | 215 kts | 349° |
| 2026-05-07 12:35 | 45.41237 | 8.79396 | 3805 ft | 213 kts | 348° |
| 2026-05-07 12:35 | 45.42663 | 8.78990 | 3678 ft | 208 kts | 348° |
| 2026-05-07 12:35 | 45.44054 | 8.78611 | 3553 ft | 198 kts | 349° |
| 2026-05-07 12:35 | 45.45378 | 8.78237 | 3420 ft | 191 kts | 348° |
| 2026-05-07 12:36 | 45.46698 | 8.77876 | 3307 ft | 190 kts | 349° |
| 2026-05-07 12:36 | 45.47994 | 8.77512 | 3179 ft | 189 kts | 349° |
| 2026-05-07 12:36 | 45.49290 | 8.77157 | 3060 ft | 189 kts | 349° |
| 2026-05-07 12:36 | 45.50589 | 8.76795 | 2932 ft | 188 kts | 349° |
| 2026-05-07 12:37 | 45.51863 | 8.76442 | 2672 ft | 179 kts | 349° |
| 2026-05-07 12:37 | 45.53028 | 8.76119 | 2447 ft | 165 kts | 348° |
| 2026-05-07 12:37 | 45.54111 | 8.75820 | 2236 ft | 150 kts | 349° |
| 2026-05-07 12:37 | 45.54781 | 8.75637 | 2097 ft | 147 kts | 348° |
| 2026-05-07 12:38 | 45.55565 | 8.75414 | 1953 ft | 148 kts | 349° |
| 2026-05-07 12:38 | 45.56569 | 8.75144 | 1752 ft | 147 kts | 349° |
| 2026-05-07 12:38 | 45.57577 | 8.74873 | 1545 ft | 147 kts | 349° |
| 2026-05-07 12:38 | 45.58576 | 8.74585 | 1355 ft | 147 kts | 348° |
| 2026-05-07 12:39 | 45.59574 | 8.74300 | 1149 ft | 146 kts | 349° |
| 2026-05-07 12:39 | 45.60563 | 8.74030 | 951 ft | 146 kts | 349° |
| 2026-05-07 12:39 | 45.61560 | 8.73757 | 792 ft | 146 kts | 349° |
| 2026-05-07 12:39 | 45.62497 | 8.73492 | 741 ft | 118 kts | 349° |
| 2026-05-07 12:40 | 45.63112 | 8.73323 | 738 ft | 67 kts | 349° |
| 2026-05-07 12:40 | 45.63502 | 8.73212 | 743 ft | 47 kts | 347° |
| 2026-05-07 12:40 | 45.63698 | 8.73099 | 741 ft | 25 kts | 327° |
| 2026-05-07 12:40 | 45.63808 | 8.72933 | 738 ft | 19 kts | 304° |
| 2026-05-07 12:41 | 45.63856 | 8.72832 | 739 ft | 13 kts | 303° |
| 2026-05-07 12:41 | 45.63912 | 8.72710 | 739 ft | 16 kts | 303° |
| 2026-05-07 12:41 | 45.63961 | 8.72566 | 739 ft | 16 kts | 268° |
| 2026-05-07 12:41 | 45.63941 | 8.72398 | 739 ft | 19 kts | 257° |
| 2026-05-07 12:42 | 45.63916 | 8.72207 | 741 ft | 20 kts | 266° |
| 2026-05-07 12:42 | 45.63906 | 8.72007 | 739 ft | 20 kts | 265° |
| 2026-05-07 12:42 | 45.63876 | 8.71849 | 739 ft | 14 kts | 226° |
| 2026-05-07 12:42 | 45.63784 | 8.71824 | 740 ft | 15 kts | 170° |
| 2026-05-07 12:43 | 45.63672 | 8.71853 | 739 ft | 18 kts | 170° |
| 2026-05-07 12:43 | 45.63542 | 8.71887 | 739 ft | 20 kts | 168° |
| 2026-05-07 12:43 | 45.63402 | 8.71931 | 740 ft | 19 kts | 167° |
| 2026-05-07 12:43 | 45.63283 | 8.71966 | 739 ft | 18 kts | 168° |
| 2026-05-07 12:44 | 45.63152 | 8.72004 | 739 ft | 20 kts | 168° |
| 2026-05-07 12:44 | 45.63061 | 8.72030 | 740 ft | 8 kts | 169° |
| 2026-05-07 12:44 | 45.63016 | 8.72030 | 739 ft | 4 kts | 214° |
| 2026-05-07 12:44 | 45.62992 | 8.71976 | 740 ft | 9 kts | 253° |
| 2026-05-07 12:45 | 45.62978 | 8.71882 | 739 ft | 9 kts | 264° |
| 2026-05-07 12:45 | 45.62968 | 8.71783 | 739 ft | 9 kts | 259° |
| 2026-05-07 12:45 | 45.62957 | 8.71702 | 740 ft | 9 kts | 259° |
| 2026-05-07 12:45 | 45.62951 | 8.71657 | 740 ft | 4 kts | 262° |
| 2026-05-07 12:46 | 45.62951 | 8.71639 | 739 ft | 1 kts | 298° |
| 2026-05-07 12:46 | 45.62965 | 8.71614 | 738 ft | 4 kts | 323° |
| 2026-05-07 12:46 | 45.62980 | 8.71606 | 740 ft | 4 kts | 354° |
| 2026-05-07 12:46 | 45.63002 | 8.71604 | 740 ft | 3 kts | 359° |
| 2026-05-07 12:47 | 45.63020 | 8.71602 | 740 ft | 2 kts | 350° |
| 2026-05-07 12:47 | 45.63024 | 8.71601 | 740 ft | 0 kts | 350° |